sensor_id;sensor_type;location;lat;lon;timestamp;temperature;humidity
33460;DHT22;19795;53.160;6.612;2023-05-29T06:33:10;13.40;1.00
33460;DHT22;19795;53.160;6.612;2023-05-29T06:41:01;13.50;18.90
33460;DHT22;19795;53.160;6.612;2023-05-29T06:43:28;13.50;99.90
33460;DHT22;19795;53.160;6.612;2023-05-29T06:45:54;13.60;99.90
33460;DHT22;19795;53.160;6.612;2023-05-29T06:48:20;13.40;99.90
33460;DHT22;19795;53.160;6.612;2023-05-29T06:50:49;13.40;99.90
33460;DHT22;19795;53.160;6.612;2023-05-29T06:53:15;13.00;99.90
33460;DHT22;19795;53.160;6.612;2023-05-29T06:55:40;12.50;99.90
33460;DHT22;19795;53.160;6.612;2023-05-29T06:58:06;12.40;99.90
33460;DHT22;19795;53.160;6.612;2023-05-29T07:00:32;12.80;99.90
33460;DHT22;19795;53.160;6.612;2023-05-29T07:02:58;13.40;99.90
33460;DHT22;19795;53.160;6.612;2023-05-29T07:05:23;13.70;99.90
33460;DHT22;19795;53.160;6.612;2023-05-29T07:07:49;14.30;1.00
33460;DHT22;19795;53.160;6.612;2023-05-29T07:10:15;13.90;26.90
33460;DHT22;19795;53.160;6.612;2023-05-29T07:12:41;13.70;81.10
33460;DHT22;19795;53.160;6.612;2023-05-29T07:15:06;13.60;33.70
33460;DHT22;19795;53.160;6.612;2023-05-29T07:17:33;13.10;99.90
33460;DHT22;19795;53.160;6.612;2023-05-29T07:19:59;13.10;99.90
33460;DHT22;19795;53.160;6.612;2023-05-29T07:22:25;12.90;1.00
33460;DHT22;19795;53.160;6.612;2023-05-29T07:24:50;12.60;99.90
33460;DHT22;19795;53.160;6.612;2023-05-29T07:27:16;12.90;99.90
33460;DHT22;19795;53.160;6.612;2023-05-29T07:29:41;12.90;1.00
33460;DHT22;19795;53.160;6.612;2023-05-29T07:32:08;13.50;99.90
33460;DHT22;19795;53.160;6.612;2023-05-29T07:34:35;13.90;33.20
33460;DHT22;19795;53.160;6.612;2023-05-29T07:37:05;13.90;99.90
33460;DHT22;19795;53.160;6.612;2023-05-29T07:39:32;14.30;1.00
33460;DHT22;19795;53.160;6.612;2023-05-29T07:41:59;14.20;1.00
33460;DHT22;19795;53.160;6.612;2023-05-29T07:44:26;14.00;38.50
33460;DHT22;19795;53.160;6.612;2023-05-29T07:46:52;13.60;22.10
33460;DHT22;19795;53.160;6.612;2023-05-29T07:49:19;13.90;32.50
33460;DHT22;19795;53.160;6.612;2023-05-29T07:51:44;14.10;54.80
33460;DHT22;19795;53.160;6.612;2023-05-29T07:54:10;14.20;57.80
33460;DHT22;19795;53.160;6.612;2023-05-29T07:56:36;14.40;1.00
33460;DHT22;19795;53.160;6.612;2023-05-29T07:59:02;13.90;1.00
33460;DHT22;19795;53.160;6.612;2023-05-29T08:01:29;14.20;99.90
33460;DHT22;19795;53.160;6.612;2023-05-29T08:03:54;14.70;1.00
33460;DHT22;19795;53.160;6.612;2023-05-29T08:06:20;14.60;1.00
33460;DHT22;19795;53.160;6.612;2023-05-29T08:08:46;14.90;99.90
33460;DHT22;19795;53.160;6.612;2023-05-29T08:11:14;14.20;1.00
33460;DHT22;19795;53.160;6.612;2023-05-29T08:13:40;14.30;49.00
33460;DHT22;19795;53.160;6.612;2023-05-29T08:16:05;14.70;1.00
33460;DHT22;19795;53.160;6.612;2023-05-29T08:18:32;14.70;1.00
33460;DHT22;19795;53.160;6.612;2023-05-29T08:20:58;14.80;99.90
33460;DHT22;19795;53.160;6.612;2023-05-29T08:23:24;14.70;99.90
33460;DHT22;19795;53.160;6.612;2023-05-29T08:25:50;15.20;1.00
33460;DHT22;19795;53.160;6.612;2023-05-29T08:28:16;15.30;99.90
33460;DHT22;19795;53.160;6.612;2023-05-29T08:30:41;14.70;1.00
33460;DHT22;19795;53.160;6.612;2023-05-29T08:33:07;14.60;1.00
33460;DHT22;19795;53.160;6.612;2023-05-29T08:35:33;14.50;99.90
33460;DHT22;19795;53.160;6.612;2023-05-29T08:37:59;14.30;96.60
33460;DHT22;19795;53.160;6.612;2023-05-29T08:40:29;14.20;99.90
33460;DHT22;19795;53.160;6.612;2023-05-29T08:43:22;14.40;88.10
33460;DHT22;19795;53.160;6.612;2023-05-29T08:45:55;14.30;99.90
33460;DHT22;19795;53.160;6.612;2023-05-29T08:48:25;14.50;13.20
33460;DHT22;19795;53.160;6.612;2023-05-29T08:50:53;14.20;1.00
33460;DHT22;19795;53.160;6.612;2023-05-29T08:53:24;14.20;58.30
33460;DHT22;19795;53.160;6.612;2023-05-29T08:55:51;14.10;21.10
33460;DHT22;19795;53.160;6.612;2023-05-29T08:58:19;14.30;35.40
33460;DHT22;19795;53.160;6.612;2023-05-29T09:00:47;14.70;99.90
33460;DHT22;19795;53.160;6.612;2023-05-29T09:03:13;14.40;99.90
33460;DHT22;19795;53.160;6.612;2023-05-29T09:05:40;14.50;99.90
33460;DHT22;19795;53.160;6.612;2023-05-29T09:08:10;14.70;99.90
33460;DHT22;19795;53.160;6.612;2023-05-29T09:10:39;14.80;99.90
33460;DHT22;19795;53.160;6.612;2023-05-29T09:13:06;15.30;1.00
33460;DHT22;19795;53.160;6.612;2023-05-29T09:15:32;14.70;99.90
33460;DHT22;19795;53.160;6.612;2023-05-29T09:17:59;14.70;99.90
33460;DHT22;19795;53.160;6.612;2023-05-29T09:20:26;14.70;1.00
33460;DHT22;19795;53.160;6.612;2023-05-29T09:22:57;14.80;99.90
33460;DHT22;19795;53.160;6.612;2023-05-29T09:25:26;14.90;99.90
33460;DHT22;19795;53.160;6.612;2023-05-29T09:27:56;15.40;99.90
33460;DHT22;19795;53.160;6.612;2023-05-29T09:30:39;15.40;1.00
33460;DHT22;19795;53.160;6.612;2023-05-29T09:33:09;15.40;99.50
33460;DHT22;19795;53.160;6.612;2023-05-29T09:35:37;15.40;18.50
33460;DHT22;19795;53.160;6.612;2023-05-29T09:38:04;15.10;31.90
33460;DHT22;19795;53.160;6.612;2023-05-29T09:40:37;15.30;99.90
33460;DHT22;19795;53.160;6.612;2023-05-29T09:45:39;15.90;1.00
33460;DHT22;19795;53.160;6.612;2023-05-29T09:48:07;16.00;1.00
33460;DHT22;19795;53.160;6.612;2023-05-29T09:50:34;15.90;99.90
33460;DHT22;19795;53.160;6.612;2023-05-29T09:53:00;15.70;99.90
33460;DHT22;19795;53.160;6.612;2023-05-29T09:55:30;16.30;7.10
33460;DHT22;19795;53.160;6.612;2023-05-29T09:58:01;16.20;99.90
33460;DHT22;19795;53.160;6.612;2023-05-29T10:00:30;16.00;99.90
33460;DHT22;19795;53.160;6.612;2023-05-29T10:02:56;16.30;99.90
33460;DHT22;19795;53.160;6.612;2023-05-29T10:05:22;16.30;59.30
33460;DHT22;19795;53.160;6.612;2023-05-29T10:07:50;15.50;1.00
33460;DHT22;19795;53.160;6.612;2023-05-29T10:10:18;16.10;1.00
33460;DHT22;19795;53.160;6.612;2023-05-29T10:12:48;16.20;99.90
33460;DHT22;19795;53.160;6.612;2023-05-29T10:15:15;16.10;99.90
33460;DHT22;19795;53.160;6.612;2023-05-29T10:17:50;15.70;99.90
33460;DHT22;19795;53.160;6.612;2023-05-29T10:20:17;15.60;99.90
33460;DHT22;19795;53.160;6.612;2023-05-29T10:22:47;16.00;99.90
33460;DHT22;19795;53.160;6.612;2023-05-29T10:25:14;16.10;99.90
33460;DHT22;19795;53.160;6.612;2023-05-29T10:27:42;16.20;1.00
33460;DHT22;19795;53.160;6.612;2023-05-29T10:30:10;16.10;1.00
33460;DHT22;19795;53.160;6.612;2023-05-29T10:38:48;15.80;99.90
33460;DHT22;19795;53.160;6.612;2023-05-29T10:44:02;16.10;1.00
33460;DHT22;19795;53.160;6.612;2023-05-29T10:49:23;16.60;99.90
33460;DHT22;19795;53.160;6.612;2023-05-29T10:51:49;15.90;99.90
33460;DHT22;19795;53.160;6.612;2023-05-29T10:54:15;16.10;99.90
33460;DHT22;19795;53.160;6.612;2023-05-29T10:56:45;16.60;99.90
33460;DHT22;19795;53.160;6.612;2023-05-29T10:59:17;17.20;99.90
33460;DHT22;19795;53.160;6.612;2023-05-29T11:01:43;17.40;1.00
33460;DHT22;19795;53.160;6.612;2023-05-29T11:06:41;16.50;99.90
33460;DHT22;19795;53.160;6.612;2023-05-29T11:12:21;16.70;1.00
33460;DHT22;19795;53.160;6.612;2023-05-29T11:15:08;16.20;99.90
33460;DHT22;19795;53.160;6.612;2023-05-29T11:20:05;16.60;1.00
33460;DHT22;19795;53.160;6.612;2023-05-29T11:23:02;16.40;1.00
33460;DHT22;19795;53.160;6.612;2023-05-29T11:25:28;16.10;99.90
33460;DHT22;19795;53.160;6.612;2023-05-29T11:27:54;15.90;99.90
33460;DHT22;19795;53.160;6.612;2023-05-29T11:31:45;16.50;99.90
33460;DHT22;19795;53.160;6.612;2023-05-29T11:34:15;16.30;99.90
33460;DHT22;19795;53.160;6.612;2023-05-29T11:36:40;15.80;1.00
33460;DHT22;19795;53.160;6.612;2023-05-29T11:39:09;16.00;1.00
33460;DHT22;19795;53.160;6.612;2023-05-29T11:41:35;16.80;99.90
33460;DHT22;19795;53.160;6.612;2023-05-29T11:44:05;16.30;99.90
33460;DHT22;19795;53.160;6.612;2023-05-29T11:46:35;16.10;99.90
33460;DHT22;19795;53.160;6.612;2023-05-29T11:49:01;16.40;99.90
33460;DHT22;19795;53.160;6.612;2023-05-29T11:51:27;17.30;99.90
33460;DHT22;19795;53.160;6.612;2023-05-29T11:53:53;17.10;1.00
33460;DHT22;19795;53.160;6.612;2023-05-29T11:56:34;16.30;1.00
33460;DHT22;19795;53.160;6.612;2023-05-29T11:59:00;16.40;1.00
33460;DHT22;19795;53.160;6.612;2023-05-29T12:01:27;16.10;1.00
33460;DHT22;19795;53.160;6.612;2023-05-29T12:03:54;16.20;1.00
33460;DHT22;19795;53.160;6.612;2023-05-29T12:06:33;17.30;1.00
33460;DHT22;19795;53.160;6.612;2023-05-29T12:08:59;17.20;1.00
33460;DHT22;19795;53.160;6.612;2023-05-29T12:11:26;16.10;1.00
33460;DHT22;19795;53.160;6.612;2023-05-29T12:13:58;16.70;1.00
33460;DHT22;19795;53.160;6.612;2023-05-29T12:16:28;16.90;1.00
33460;DHT22;19795;53.160;6.612;2023-05-29T12:18:54;17.00;1.00
33460;DHT22;19795;53.160;6.612;2023-05-29T12:21:21;17.50;1.00
33460;DHT22;19795;53.160;6.612;2023-05-29T12:23:48;17.30;1.00
33460;DHT22;19795;53.160;6.612;2023-05-29T12:26:13;16.80;1.00
33460;DHT22;19795;53.160;6.612;2023-05-29T12:28:44;16.80;25.00
33460;DHT22;19795;53.160;6.612;2023-05-29T12:31:10;17.00;22.80
33460;DHT22;19795;53.160;6.612;2023-05-29T12:33:42;17.40;7.80
33460;DHT22;19795;53.160;6.612;2023-05-29T12:36:09;16.90;27.30
33460;DHT22;19795;53.160;6.612;2023-05-29T12:38:51;17.00;22.60
33460;DHT22;19795;53.160;6.612;2023-05-29T12:41:27;17.50;64.20
33460;DHT22;19795;53.160;6.612;2023-05-29T12:43:57;17.30;83.00
33460;DHT22;19795;53.160;6.612;2023-05-29T12:46:24;17.20;69.50
33460;DHT22;19795;53.160;6.612;2023-05-29T12:48:53;17.10;84.50
33460;DHT22;19795;53.160;6.612;2023-05-29T12:51:26;17.10;90.20
33460;DHT22;19795;53.160;6.612;2023-05-29T12:53:52;17.40;97.70
33460;DHT22;19795;53.160;6.612;2023-05-29T12:56:21;17.10;99.00
33460;DHT22;19795;53.160;6.612;2023-05-29T12:58:49;17.10;99.40
33460;DHT22;19795;53.160;6.612;2023-05-29T13:01:14;17.20;98.40
33460;DHT22;19795;53.160;6.612;2023-05-29T13:03:40;17.30;98.10
33460;DHT22;19795;53.160;6.612;2023-05-29T13:06:06;17.20;99.00
33460;DHT22;19795;53.160;6.612;2023-05-29T13:08:32;17.00;98.50
33460;DHT22;19795;53.160;6.612;2023-05-29T13:10:58;17.00;99.80
33460;DHT22;19795;53.160;6.612;2023-05-29T13:13:27;18.10;99.50
33460;DHT22;19795;53.160;6.612;2023-05-29T13:15:53;18.90;97.70
33460;DHT22;19795;53.160;6.612;2023-05-29T13:18:19;17.80;96.70
33460;DHT22;19795;53.160;6.612;2023-05-29T13:20:44;17.40;98.00
33460;DHT22;19795;53.160;6.612;2023-05-29T13:23:10;17.50;98.60
33460;DHT22;19795;53.160;6.612;2023-05-29T13:25:36;17.50;98.70
33460;DHT22;19795;53.160;6.612;2023-05-29T13:28:02;17.80;99.00
33460;DHT22;19795;53.160;6.612;2023-05-29T13:30:27;17.30;99.10
33460;DHT22;19795;53.160;6.612;2023-05-29T13:32:53;17.30;99.10
33460;DHT22;19795;53.160;6.612;2023-05-29T13:35:19;17.50;98.40
33460;DHT22;19795;53.160;6.612;2023-05-29T13:37:45;17.60;98.70
33460;DHT22;19795;53.160;6.612;2023-05-29T13:40:11;17.80;98.60
33460;DHT22;19795;53.160;6.612;2023-05-29T13:42:40;18.20;97.90
33460;DHT22;19795;53.160;6.612;2023-05-29T13:45:07;18.10;98.40
33460;DHT22;19795;53.160;6.612;2023-05-29T13:47:34;17.80;98.40
33460;DHT22;19795;53.160;6.612;2023-05-29T13:50:00;17.50;97.60
33460;DHT22;19795;53.160;6.612;2023-05-29T13:52:26;16.70;98.80
33460;DHT22;19795;53.160;6.612;2023-05-29T13:54:52;17.10;97.90
33460;DHT22;19795;53.160;6.612;2023-05-29T13:57:17;17.60;96.80
33460;DHT22;19795;53.160;6.612;2023-05-29T13:59:43;17.70;97.80
33460;DHT22;19795;53.160;6.612;2023-05-29T14:02:09;17.70;98.40
33460;DHT22;19795;53.160;6.612;2023-05-29T14:04:34;18.40;97.10
33460;DHT22;19795;53.160;6.612;2023-05-29T14:07:00;17.90;96.50
33460;DHT22;19795;53.160;6.612;2023-05-29T14:09:26;17.40;97.90
33460;DHT22;19795;53.160;6.612;2023-05-29T14:11:59;17.80;96.80
33460;DHT22;19795;53.160;6.612;2023-05-29T14:14:25;17.40;97.50
33460;DHT22;19795;53.160;6.612;2023-05-29T14:16:52;17.60;98.40
33460;DHT22;19795;53.160;6.612;2023-05-29T14:19:18;17.70;98.40
33460;DHT22;19795;53.160;6.612;2023-05-29T14:21:44;17.70;97.30
33460;DHT22;19795;53.160;6.612;2023-05-29T14:24:10;17.80;97.20
33460;DHT22;19795;53.160;6.612;2023-05-29T14:26:36;18.40;95.80
33460;DHT22;19795;53.160;6.612;2023-05-29T14:29:03;18.30;96.10
33460;DHT22;19795;53.160;6.612;2023-05-29T14:31:31;18.50;96.40
33460;DHT22;19795;53.160;6.612;2023-05-29T14:33:57;18.00;95.50
33460;DHT22;19795;53.160;6.612;2023-05-29T14:36:23;18.10;95.20
33460;DHT22;19795;53.160;6.612;2023-05-29T14:38:48;18.40;95.10
33460;DHT22;19795;53.160;6.612;2023-05-29T14:41:15;17.50;94.50
33460;DHT22;19795;53.160;6.612;2023-05-29T14:43:42;17.10;94.70
33460;DHT22;19795;53.160;6.612;2023-05-29T14:46:08;16.70;95.90
33460;DHT22;19795;53.160;6.612;2023-05-29T14:48:34;16.60;96.20
33460;DHT22;19795;53.160;6.612;2023-05-29T14:51:00;16.10;95.90
33460;DHT22;19795;53.160;6.612;2023-05-29T14:53:26;16.20;96.90
33460;DHT22;19795;53.160;6.612;2023-05-29T14:55:52;15.90;97.60
33460;DHT22;19795;53.160;6.612;2023-05-29T14:58:21;15.60;97.30
33460;DHT22;19795;53.160;6.612;2023-05-29T15:00:47;15.60;98.30
33460;DHT22;19795;53.160;6.612;2023-05-29T15:03:13;15.50;98.50
33460;DHT22;19795;53.160;6.612;2023-05-29T15:05:38;15.60;98.60
33460;DHT22;19795;53.160;6.612;2023-05-29T15:08:04;15.90;97.40
33460;DHT22;19795;53.160;6.612;2023-05-29T15:10:30;15.70;98.00
33460;DHT22;19795;53.160;6.612;2023-05-29T15:12:56;15.60;98.10
33460;DHT22;19795;53.160;6.612;2023-05-29T15:15:27;15.50;97.50
33460;DHT22;19795;53.160;6.612;2023-05-29T15:17:53;15.40;98.50
33460;DHT22;19795;53.160;6.612;2023-05-29T15:20:25;15.30;98.70
33460;DHT22;19795;53.160;6.612;2023-05-29T15:22:52;15.20;98.10
33460;DHT22;19795;53.160;6.612;2023-05-29T15:25:19;14.90;99.60
33460;DHT22;19795;53.160;6.612;2023-05-29T15:27:45;14.80;99.60
33460;DHT22;19795;53.160;6.612;2023-05-29T15:30:16;15.10;99.80
33460;DHT22;19795;53.160;6.612;2023-05-29T15:32:43;15.20;99.90
33460;DHT22;19795;53.160;6.612;2023-05-29T15:35:13;15.00;99.90
33460;DHT22;19795;53.160;6.612;2023-05-29T15:37:39;15.00;99.90
33460;DHT22;19795;53.160;6.612;2023-05-29T15:40:06;14.80;99.90
33460;DHT22;19795;53.160;6.612;2023-05-29T15:42:32;14.80;99.90
33460;DHT22;19795;53.160;6.612;2023-05-29T15:44:58;14.90;99.90
33460;DHT22;19795;53.160;6.612;2023-05-29T15:47:24;15.00;99.90
33460;DHT22;19795;53.160;6.612;2023-05-29T15:49:50;14.80;99.90
33460;DHT22;19795;53.160;6.612;2023-05-29T15:52:17;14.30;99.90
33460;DHT22;19795;53.160;6.612;2023-05-29T15:54:45;14.10;99.90
33460;DHT22;19795;53.160;6.612;2023-05-29T15:57:11;14.10;99.90
33460;DHT22;19795;53.160;6.612;2023-05-29T15:59:37;14.10;99.90
33460;DHT22;19795;53.160;6.612;2023-05-29T16:02:03;14.00;99.90
33460;DHT22;19795;53.160;6.612;2023-05-29T16:04:29;14.20;99.90
33460;DHT22;19795;53.160;6.612;2023-05-29T16:06:55;14.50;99.90
33460;DHT22;19795;53.160;6.612;2023-05-29T16:09:21;14.00;99.90
33460;DHT22;19795;53.160;6.612;2023-05-29T16:11:47;14.20;99.90
33460;DHT22;19795;53.160;6.612;2023-05-29T16:14:13;14.70;99.90
33460;DHT22;19795;53.160;6.612;2023-05-29T16:16:39;14.80;99.90
33460;DHT22;19795;53.160;6.612;2023-05-29T16:19:08;14.60;99.90
33460;DHT22;19795;53.160;6.612;2023-05-29T16:21:34;14.50;99.90
33460;DHT22;19795;53.160;6.612;2023-05-29T16:24:02;14.70;99.90
33460;DHT22;19795;53.160;6.612;2023-05-29T16:26:28;14.30;99.90
33460;DHT22;19795;53.160;6.612;2023-05-29T16:28:58;14.40;99.90
33460;DHT22;19795;53.160;6.612;2023-05-29T16:31:24;14.50;99.90
33460;DHT22;19795;53.160;6.612;2023-05-29T16:33:51;14.60;99.90
33460;DHT22;19795;53.160;6.612;2023-05-29T16:36:17;14.50;99.90
33460;DHT22;19795;53.160;6.612;2023-05-29T16:38:43;14.90;99.90
33460;DHT22;19795;53.160;6.612;2023-05-29T16:41:09;14.90;99.90
33460;DHT22;19795;53.160;6.612;2023-05-29T16:43:38;15.00;99.90
33460;DHT22;19795;53.160;6.612;2023-05-29T16:46:04;15.60;99.90
33460;DHT22;19795;53.160;6.612;2023-05-29T16:48:35;15.70;99.90
33460;DHT22;19795;53.160;6.612;2023-05-29T16:51:05;15.60;99.90
33460;DHT22;19795;53.160;6.612;2023-05-29T16:53:36;15.50;99.90
33460;DHT22;19795;53.160;6.612;2023-05-29T16:56:03;15.00;99.90
33460;DHT22;19795;53.160;6.612;2023-05-29T16:58:30;15.40;99.90
33460;DHT22;19795;53.160;6.612;2023-05-29T17:01:02;15.40;99.90
33460;DHT22;19795;53.160;6.612;2023-05-29T17:03:28;15.20;99.90
33460;DHT22;19795;53.160;6.612;2023-05-29T17:05:54;15.00;99.90
33460;DHT22;19795;53.160;6.612;2023-05-29T17:08:20;14.70;99.90
33460;DHT22;19795;53.160;6.612;2023-05-29T17:10:46;14.70;99.90
33460;DHT22;19795;53.160;6.612;2023-05-29T17:13:13;14.80;99.90
33460;DHT22;19795;53.160;6.612;2023-05-29T17:15:40;14.70;99.90
33460;DHT22;19795;53.160;6.612;2023-05-29T17:18:05;14.70;99.90
33460;DHT22;19795;53.160;6.612;2023-05-29T17:20:31;14.70;99.90
33460;DHT22;19795;53.160;6.612;2023-05-29T17:22:58;14.70;99.90
33460;DHT22;19795;53.160;6.612;2023-05-29T17:25:24;14.90;99.90
33460;DHT22;19795;53.160;6.612;2023-05-29T17:27:50;15.10;99.90
33460;DHT22;19795;53.160;6.612;2023-05-29T17:30:16;14.80;99.90
33460;DHT22;19795;53.160;6.612;2023-05-29T17:32:42;14.70;99.90
33460;DHT22;19795;53.160;6.612;2023-05-29T17:35:08;14.90;99.90
33460;DHT22;19795;53.160;6.612;2023-05-29T17:37:34;14.70;99.90
33460;DHT22;19795;53.160;6.612;2023-05-29T17:40:00;14.70;99.90
33460;DHT22;19795;53.160;6.612;2023-05-29T17:42:26;14.70;99.90
33460;DHT22;19795;53.160;6.612;2023-05-29T17:44:52;14.70;99.90
33460;DHT22;19795;53.160;6.612;2023-05-29T17:47:18;14.60;99.90
33460;DHT22;19795;53.160;6.612;2023-05-29T17:49:44;14.90;99.90
33460;DHT22;19795;53.160;6.612;2023-05-29T17:52:10;14.10;99.90
33460;DHT22;19795;53.160;6.612;2023-05-29T17:54:47;14.10;99.90
33460;DHT22;19795;53.160;6.612;2023-05-29T17:57:13;14.10;99.90
33460;DHT22;19795;53.160;6.612;2023-05-29T17:59:41;14.60;99.90
33460;DHT22;19795;53.160;6.612;2023-05-29T18:02:07;14.30;99.90
33460;DHT22;19795;53.160;6.612;2023-05-29T18:04:32;14.10;99.90
33460;DHT22;19795;53.160;6.612;2023-05-29T18:06:58;13.80;99.90
33460;DHT22;19795;53.160;6.612;2023-05-29T18:09:24;14.00;99.90
33460;DHT22;19795;53.160;6.612;2023-05-29T18:11:51;14.20;99.90
33460;DHT22;19795;53.160;6.612;2023-05-29T18:14:17;13.70;99.90
33460;DHT22;19795;53.160;6.612;2023-05-29T18:16:45;13.80;99.90
33460;DHT22;19795;53.160;6.612;2023-05-29T18:19:11;13.60;99.90
33460;DHT22;19795;53.160;6.612;2023-05-29T18:21:37;13.40;99.90
33460;DHT22;19795;53.160;6.612;2023-05-29T18:24:04;13.30;99.90
33460;DHT22;19795;53.160;6.612;2023-05-29T18:26:30;13.10;99.90
33460;DHT22;19795;53.160;6.612;2023-05-29T18:28:55;13.00;99.90
33460;DHT22;19795;53.160;6.612;2023-05-29T18:31:23;12.80;99.90
33460;DHT22;19795;53.160;6.612;2023-05-29T18:33:49;12.80;99.90
33460;DHT22;19795;53.160;6.612;2023-05-29T18:36:15;12.90;99.90
33460;DHT22;19795;53.160;6.612;2023-05-29T18:38:41;12.90;99.90
33460;DHT22;19795;53.160;6.612;2023-05-29T18:41:09;12.90;99.90
33460;DHT22;19795;53.160;6.612;2023-05-29T18:43:36;12.80;99.90
33460;DHT22;19795;53.160;6.612;2023-05-29T18:46:05;12.60;99.90
33460;DHT22;19795;53.160;6.612;2023-05-29T18:48:30;12.30;99.90
33460;DHT22;19795;53.160;6.612;2023-05-29T18:50:56;11.80;99.90
33460;DHT22;19795;53.160;6.612;2023-05-29T18:53:23;11.60;99.90
33460;DHT22;19795;53.160;6.612;2023-05-29T18:55:49;11.60;99.90
33460;DHT22;19795;53.160;6.612;2023-05-29T18:58:16;11.60;99.90
33460;DHT22;19795;53.160;6.612;2023-05-29T19:00:42;11.50;99.90
33460;DHT22;19795;53.160;6.612;2023-05-29T19:03:07;11.50;99.90
33460;DHT22;19795;53.160;6.612;2023-05-29T19:05:34;11.40;99.90
33460;DHT22;19795;53.160;6.612;2023-05-29T19:08:00;11.40;99.90
33460;DHT22;19795;53.160;6.612;2023-05-29T19:10:32;11.30;99.90
33460;DHT22;19795;53.160;6.612;2023-05-29T19:12:58;11.30;99.90
33460;DHT22;19795;53.160;6.612;2023-05-29T19:15:24;11.30;99.90
33460;DHT22;19795;53.160;6.612;2023-05-29T19:17:49;11.20;99.90
33460;DHT22;19795;53.160;6.612;2023-05-29T19:20:15;11.10;99.90
33460;DHT22;19795;53.160;6.612;2023-05-29T19:22:41;11.10;99.90
33460;DHT22;19795;53.160;6.612;2023-05-29T19:25:07;11.00;99.90
33460;DHT22;19795;53.160;6.612;2023-05-29T19:27:32;11.00;99.90
33460;DHT22;19795;53.160;6.612;2023-05-29T19:29:58;10.90;99.90
33460;DHT22;19795;53.160;6.612;2023-05-29T19:32:25;10.90;99.90
33460;DHT22;19795;53.160;6.612;2023-05-29T19:34:52;10.90;99.90
33460;DHT22;19795;53.160;6.612;2023-05-29T19:37:18;10.80;99.90
33460;DHT22;19795;53.160;6.612;2023-05-29T19:39:44;10.80;99.90
33460;DHT22;19795;53.160;6.612;2023-05-29T19:42:10;10.70;99.90
33460;DHT22;19795;53.160;6.612;2023-05-29T19:44:36;10.70;99.90
33460;DHT22;19795;53.160;6.612;2023-05-29T19:47:02;10.70;99.90
33460;DHT22;19795;53.160;6.612;2023-05-29T19:49:28;10.70;99.90
33460;DHT22;19795;53.160;6.612;2023-05-29T19:51:53;10.70;99.90
33460;DHT22;19795;53.160;6.612;2023-05-29T19:54:26;10.60;99.90
33460;DHT22;19795;53.160;6.612;2023-05-29T19:56:52;10.60;99.90
33460;DHT22;19795;53.160;6.612;2023-05-29T19:59:21;10.60;99.90
33460;DHT22;19795;53.160;6.612;2023-05-29T20:01:47;10.60;99.90
33460;DHT22;19795;53.160;6.612;2023-05-29T20:04:12;10.50;99.90
33460;DHT22;19795;53.160;6.612;2023-05-29T20:06:38;10.60;99.90
33460;DHT22;19795;53.160;6.612;2023-05-29T20:09:05;10.50;99.90
33460;DHT22;19795;53.160;6.612;2023-05-29T20:11:32;10.50;99.90
33460;DHT22;19795;53.160;6.612;2023-05-29T20:13:58;10.50;99.90
33460;DHT22;19795;53.160;6.612;2023-05-29T20:16:23;10.40;99.90
33460;DHT22;19795;53.160;6.612;2023-05-29T20:18:49;10.40;99.90
33460;DHT22;19795;53.160;6.612;2023-05-29T20:21:15;10.50;99.90
33460;DHT22;19795;53.160;6.612;2023-05-29T20:23:40;10.50;99.90
33460;DHT22;19795;53.160;6.612;2023-05-29T20:26:06;10.60;99.90
33460;DHT22;19795;53.160;6.612;2023-05-29T20:28:32;10.60;99.90
33460;DHT22;19795;53.160;6.612;2023-05-29T20:30:59;10.50;99.90
33460;DHT22;19795;53.160;6.612;2023-05-29T20:33:25;10.60;99.90
33460;DHT22;19795;53.160;6.612;2023-05-29T20:35:50;10.60;99.90
33460;DHT22;19795;53.160;6.612;2023-05-29T20:38:16;10.60;99.90
33460;DHT22;19795;53.160;6.612;2023-05-29T20:40:42;10.60;99.90
33460;DHT22;19795;53.160;6.612;2023-05-29T20:43:09;10.50;99.90
33460;DHT22;19795;53.160;6.612;2023-05-29T20:45:35;10.60;99.90
33460;DHT22;19795;53.160;6.612;2023-05-29T20:48:02;10.50;99.90
33460;DHT22;19795;53.160;6.612;2023-05-29T20:50:28;10.50;99.90
33460;DHT22;19795;53.160;6.612;2023-05-29T20:52:54;10.50;99.90
